Gloucester City, NJ (08030)

1:10 AM EST on December 27, 2014 (GMT -0500)
West Collingswood Theatre District | Change Station
CLOSE
Current Station
Personal Weather Station
Location: Collingswood, NJ
Elevation: 23 ft
Nearby Weather Stations

Elev 23 ft 39.91 °N, 75.09 °W | Updated 20 seconds ago

Partly Cloudy
Partly Cloudy
39.6 °F
Feels Like 40 °F
N
0.0
Wind Variable Wind from South
Gusts 0.0 mph

Today
High -- | Low -- °F
--% Chance of Precip.
Yesterday
High -- | Low -- °F
Precip. -- in
7:20 AM 4:42 PM
Waxing Crescent, 33% visible
Pressure 30.24 in
Visibility 10.0 miles
Clouds Scattered Clouds 25000 ft
Windchill 40 °F
Dew Point 34 °F
Humidity 79%
Rainfall 0.00 in
Snow Depth Not available.
UV 0 out of 12
Pollen .10 out of 12
Air Quality Not available.
Flu Activity Not available.
METAR KPHL 270554Z 25004KT 10SM SCT250 02/M01 A3024 RMK AO2 SLP240 T00221006 10067 20011 58010

More Conditions Fewer Conditions

Pressure 30.24 in
Visibility 10.0 miles
Clouds Scattered Clouds 25000 ft
Windchill 40 °F
Dew Point 34 °F
Humidity 79%
Rainfall 0.00 in
Snow Depth Not available.
UV 0 out of 12
Pollen .10 out of 12
Air Quality Not available.
Flu Activity Not available.
METAR KPHL 270554Z 25004KT 10SM SCT250 02/M01 A3024 RMK AO2 SLP240 T00221006 10067 20011 58010

More Conditions Fewer Conditions

10-Day Weather Forecast

Almanac

Astronomy

Dec. 27, 2014 Rise Set
Actual Time
Civil Twilight
Nautical Twilight
Astronomical Twilight
Moon
Length of Visible Light
Length of Day
Tomorrow will be .
, % of the Moon is Illuminated

Today's Extremes

State Highs State Lows

Community

WunderPhotos

Upload Photos

1,780,853 photos uploaded!

WunderBlogs® & News

Nearby

Air Quality

  Air Quality AQ Index Pollutant
Not available.

Snow Depth

Station Depth Elevation

Earthquake Activity

City Distance Mag. Time & Date
Minimum magnitude displayed is 2.5.

Coastal Water Temperatures

Place Temperature

Nearby Weather Stations